Time;durP1;ratioP1;P1;durP2;ratioP2;P2;SDS_P1;SDS_P2;PMS_P1;PMS_P2;Temp;Humidity;BMP_temperature;BMP_pressure;BME280_temperature;BME280_humidity;BME280_pressure;Samples;Min_cycle;Max_cycle;Signal;HPM_P1;HPM_P2
2022/07/19 00:01:37;;;;;;;2.55;1.77;;;18.60;87.00;;;;;;4975402;28;20027;-60
2022/07/19 00:04:02;;;;;;;5.57;1.80;;;18.60;87.00;;;;;;4975865;28;20030;-59
2022/07/19 00:06:28;;;;;;;6.40;2.30;;;18.60;87.00;;;;;;4975630;28;20023;-60
2022/07/19 00:08:54;;;;;;;4.72;1.98;;;18.60;87.30;;;;;;4976798;28;20117;-57
2022/07/19 00:11:19;;;;;;;9.32;2.05;;;18.60;87.60;;;;;;4975155;28;20034;-59
2022/07/19 00:13:45;;;;;;;3.35;2.30;;;18.40;88.40;;;;;;4974989;28;20019;-60
2022/07/19 00:16:11;;;;;;;4.78;2.00;;;18.40;89.30;;;;;;4975203;28;20027;-60
2022/07/19 00:18:37;;;;;;;8.95;2.45;;;18.30;90.20;;;;;;4976402;28;20023;-60
2022/07/19 00:21:03;;;;;;;9.55;2.40;;;18.30;90.60;;;;;;4975021;28;20394;-60
2022/07/19 00:23:28;;;;;;;6.07;2.22;;;18.30;90.90;;;;;;4976476;28;20054;-58
2022/07/19 00:25:54;;;;;;;7.85;2.78;;;18.20;91.30;;;;;;4976355;28;20027;-60
2022/07/19 00:28:19;;;;;;;5.00;2.30;;;18.20;91.80;;;;;;4975294;28;20039;-60
2022/07/19 00:30:45;;;;;;;5.60;2.15;;;18.10;92.30;;;;;;4974750;28;20465;-60
2022/07/19 00:33:11;;;;;;;7.50;2.15;;;18.20;92.70;;;;;;4976381;28;20029;-60
2022/07/19 00:35:37;;;;;;;4.40;2.13;;;18.20;93.20;;;;;;4976439;28;20027;-60
2022/07/19 00:38:05;;;;;;;2.63;1.92;;;18.20;93.50;;;;;;4975034;28;20073;-60
2022/07/19 00:40:31;;;;;;;8.95;2.42;;;18.20;94.20;;;;;;4974668;28;20035;-60
2022/07/19 00:42:57;;;;;;;6.30;2.92;;;18.20;94.60;;;;;;4975868;28;20027;-60
2022/07/19 00:45:22;;;;;;;9.02;2.50;;;18.30;95.10;;;;;;4976187;28;20023;-60
2022/07/19 00:47:49;;;;;;;4.05;2.15;;;18.30;95.50;;;;;;4974546;28;20038;-60
2022/07/19 00:50:14;;;;;;;3.15;2.50;;;18.20;96.20;;;;;;4974510;28;20034;-58
2022/07/19 00:52:42;;;;;;;7.13;2.38;;;18.10;96.80;;;;;;4974575;28;20030;-57
2022/07/19 00:55:09;;;;;;;6.32;2.55;;;18.10;97.90;;;;;;4976062;28;20027;-56
2022/07/19 00:57:37;;;;;;;6.20;1.80;;;17.90;98.50;;;;;;4974495;28;20158;-60
2022/07/19 01:00:04;;;;;;;4.40;2.10;;;17.90;99.80;;;;;;4974634;28;20026;-59
2022/07/19 01:02:31;;;;;;;3.47;2.67;;;17.90;99.90;;;;;;4974357;28;20494;-60
2022/07/19 01:04:57;;;;;;;7.72;2.70;;;17.90;99.90;;;;;;4974551;28;20031;-60
2022/07/19 01:07:23;;;;;;;4.82;2.08;;;17.90;99.90;;;;;;4974247;28;20052;-59
2022/07/19 01:09:50;;;;;;;6.32;2.30;;;17.90;99.90;;;;;;4975360;28;20059;-59
2022/07/19 01:12:17;;;;;;;5.38;2.28;;;17.90;99.90;;;;;;4975317;28;20029;-57
2022/07/19 01:14:42;;;;;;;5.13;2.20;;;17.80;99.90;;;;;;4974239;28;20018;-56
2022/07/19 01:17:08;;;;;;;12.55;2.50;;;17.80;99.90;;;;;;4974102;28;20119;-59
2022/07/19 01:19:34;;;;;;;3.58;2.45;;;17.80;99.90;;;;;;4975244;28;20027;-60
2022/07/19 01:22:00;;;;;;;4.10;2.22;;;17.80;99.90;;;;;;4975229;28;20078;-59
2022/07/19 01:24:25;;;;;;;5.88;2.38;;;17.70;99.90;;;;;;4975210;28;20035;-60
2022/07/19 01:26:51;;;;;;;5.25;2.42;;;17.60;99.90;;;;;;4973667;28;20089;-60
2022/07/19 01:29:17;;;;;;;5.65;2.80;;;17.60;99.90;;;;;;4973884;28;20053;-61
2022/07/19 01:31:43;;;;;;;5.93;2.60;;;17.50;99.90;;;;;;4974948;28;20081;-60
2022/07/19 01:34:08;;;;;;;4.18;2.50;;;17.40;99.90;;;;;;4973785;28;20367;-55
2022/07/19 01:36:34;;;;;;;4.75;2.60;;;17.30;99.90;;;;;;4975271;28;20407;-58
2022/07/19 01:39:00;;;;;;;5.45;2.67;;;17.30;99.90;;;;;;4974858;28;20023;-60
2022/07/19 01:41:25;;;;;;;4.72;2.50;;;17.20;99.90;;;;;;4973551;28;20022;-60
2022/07/19 01:43:51;;;;;;;5.75;2.75;;;17.10;99.90;;;;;;4974894;28;20035;-60
2022/07/19 01:46:17;;;;;;;6.10;2.85;;;17.10;99.90;;;;;;4974845;28;20053;-58
2022/07/19 01:48:42;;;;;;;4.35;2.40;;;17.10;99.90;;;;;;4974052;28;20035;-60
2022/07/19 01:51:08;;;;;;;3.72;2.30;;;17.00;99.90;;;;;;4973497;28;20029;-57
2022/07/19 01:53:34;;;;;;;9.85;2.53;;;17.10;99.90;;;;;;4973621;28;20027;-60
2022/07/19 01:55:59;;;;;;;8.40;2.20;;;17.00;99.90;;;;;;4974111;28;20027;-58
2022/07/19 01:58:25;;;;;;;6.25;2.35;;;17.00;99.90;;;;;;4973477;28;20026;-60
2022/07/19 02:00:51;;;;;;;4.65;2.40;;;16.90;99.90;;;;;;4974616;28;20080;-60
2022/07/19 02:03:17;;;;;;;7.70;2.55;;;16.90;99.90;;;;;;4973409;28;20049;-58
2022/07/19 02:05:44;;;;;;;3.97;2.53;;;16.70;99.90;;;;;;4973641;28;20081;-60
2022/07/19 02:08:10;;;;;;;5.22;2.72;;;16.70;99.90;;;;;;4973749;28;20053;-60
2022/07/19 02:10:35;;;;;;;5.90;2.42;;;16.70;99.90;;;;;;4973530;28;20113;-60
2022/07/19 02:13:01;;;;;;;14.40;3.10;;;16.60;99.90;;;;;;4973544;28;20121;-60
2022/07/19 02:15:27;;;;;;;7.50;2.95;;;16.60;99.90;;;;;;4973600;28;20030;-60
2022/07/19 02:17:52;;;;;;;6.32;2.60;;;16.60;99.90;;;;;;4973508;28;20030;-60
2022/07/19 02:20:18;;;;;;;7.10;2.63;;;16.50;99.90;;;;;;4973213;28;20110;-60
2022/07/19 02:22:44;;;;;;;5.10;2.85;;;16.50;99.90;;;;;;4973250;28;20410;-60
2022/07/19 02:25:10;;;;;;;3.90;2.22;;;16.40;99.90;;;;;;4975130;28;20486;-59
2022/07/19 02:27:35;;;;;;;6.82;2.88;;;16.40;99.90;;;;;;4974681;28;20027;-60
2022/07/19 02:30:02;;;;;;;6.63;2.53;;;16.40;99.90;;;;;;4973641;28;20031;-60
2022/07/19 02:32:27;;;;;;;6.28;2.30;;;16.40;99.90;;;;;;4972942;28;20029;-60
2022/07/19 02:34:54;;;;;;;14.27;2.58;;;16.30;99.90;;;;;;4974477;28;20093;-60
2022/07/19 02:37:20;;;;;;;5.15;2.42;;;16.30;99.90;;;;;;4974211;28;20029;-58
2022/07/19 02:39:45;;;;;;;6.18;2.85;;;16.20;99.90;;;;;;4977264;28;20023;-60
2022/07/19 02:42:11;;;;;;;7.53;3.72;;;16.20;99.90;;;;;;4977609;28;20034;-60
2022/07/19 02:44:36;;;;;;;4.72;2.50;;;16.20;99.90;;;;;;4976972;28;20457;-60
2022/07/19 02:47:02;;;;;;;4.80;2.45;;;16.10;99.90;;;;;;4976894;28;20077;-60
2022/07/19 02:49:28;;;;;;;5.63;2.53;;;16.00;99.90;;;;;;4976987;28;20027;-60
2022/07/19 02:51:53;;;;;;;9.32;3.50;;;16.00;99.90;;;;;;4976766;28;20033;-59
2022/07/19 02:54:19;;;;;;;4.18;3.00;;;16.00;99.90;;;;;;4976764;28;20027;-60
2022/07/19 02:56:44;;;;;;;7.07;2.80;;;15.90;99.90;;;;;;4977046;28;20057;-58
2022/07/19 02:59:10;;;;;;;5.53;2.38;;;15.90;99.90;;;;;;4976671;28;20113;-59
2022/07/19 03:01:36;;;;;;;5.55;2.17;;;16.00;99.90;;;;;;4976847;28;20107;-58
2022/07/19 03:04:01;;;;;;;3.03;2.30;;;15.90;99.90;;;;;;4976523;28;20030;-60
2022/07/19 03:06:27;;;;;;;3.75;2.58;;;15.90;99.90;;;;;;4977031;28;20529;-60
2022/07/19 03:08:53;;;;;;;7.45;2.78;;;15.90;99.90;;;;;;4976393;28;20030;-59
2022/07/19 03:11:18;;;;;;;7.28;2.38;;;15.80;99.90;;;;;;4976342;28;20022;-60
2022/07/19 03:13:44;;;;;;;5.38;2.20;;;15.70;99.90;;;;;;4976378;28;20033;-60
2022/07/19 03:16:09;;;;;;;6.18;2.50;;;15.70;99.90;;;;;;4977558;28;20114;-59
2022/07/19 03:18:35;;;;;;;5.88;2.17;;;15.80;99.90;;;;;;4976632;28;20034;-58
2022/07/19 03:21:01;;;;;;;5.95;2.15;;;15.90;99.90;;;;;;4977256;28;20062;-57
2022/07/19 03:23:30;;;;;;;7.43;2.78;;;16.10;99.90;;;;;;4977932;28;20035;-60
2022/07/19 03:25:56;;;;;;;4.55;2.30;;;16.10;99.90;;;;;;4976943;28;20370;-60
2022/07/19 03:28:21;;;;;;;10.60;4.78;;;16.10;99.90;;;;;;4976346;28;20026;-60
2022/07/19 03:30:47;;;;;;;7.88;2.78;;;16.00;99.90;;;;;;4977320;28;20035;-57
2022/07/19 03:33:15;;;;;;;6.07;2.50;;;16.00;99.90;;;;;;4977212;28;20030;-55
2022/07/19 03:35:43;;;;;;;3.80;2.17;;;15.90;99.90;;;;;;4977028;28;20027;-58
2022/07/19 03:38:09;;;;;;;3.35;2.13;;;15.90;99.90;;;;;;4975930;28;20035;-60
2022/07/19 03:40:34;;;;;;;5.45;2.22;;;15.90;99.90;;;;;;4975788;28;20058;-59
2022/07/19 03:43:00;;;;;;;5.55;2.67;;;15.90;99.90;;;;;;4976998;28;20069;-60
2022/07/19 03:45:26;;;;;;;3.85;2.35;;;15.80;99.90;;;;;;4977065;28;20061;-60
2022/07/19 03:47:52;;;;;;;8.38;2.40;;;15.80;99.90;;;;;;4975685;28;20486;-58
2022/07/19 03:50:17;;;;;;;14.63;4.85;;;15.80;99.90;;;;;;4975900;28;20027;-57
2022/07/19 03:52:43;;;;;;;7.85;3.03;;;15.80;99.90;;;;;;4975936;28;20022;-58
2022/07/19 03:55:09;;;;;;;4.05;2.97;;;15.80;99.90;;;;;;4977159;28;20031;-54
2022/07/19 03:57:34;;;;;;;9.68;4.68;;;15.80;99.90;;;;;;4975570;28;20023;-55
2022/07/19 04:00:00;;;;;;;5.50;2.78;;;15.80;99.90;;;;;;4975421;28;20057;-56
2022/07/19 04:02:25;;;;;;;4.60;3.10;;;15.80;99.90;;;;;;4976624;28;20110;-58
2022/07/19 04:04:51;;;;;;;9.48;2.60;;;15.90;99.90;;;;;;4976677;28;20033;-57
2022/07/19 04:07:17;;;;;;;6.18;2.40;;;15.90;99.90;;;;;;4975755;28;20090;-60
2022/07/19 04:09:42;;;;;;;4.22;2.28;;;15.90;99.90;;;;;;4976792;28;20027;-60
2022/07/19 04:12:08;;;;;;;5.53;2.40;;;16.00;99.90;;;;;;4975339;28;20027;-60
2022/07/19 04:14:34;;;;;;;6.65;3.35;;;16.10;99.90;;;;;;4975843;28;20478;-60
2022/07/19 04:16:59;;;;;;;7.70;4.10;;;16.20;99.90;;;;;;4975243;28;20023;-60
2022/07/19 04:19:25;;;;;;;3.63;2.53;;;16.50;99.90;;;;;;4976664;28;20038;-60
2022/07/19 04:21:50;;;;;;;5.38;2.50;;;16.70;99.90;;;;;;4974999;28;20058;-60
2022/07/19 04:24:16;;;;;;;6.57;2.58;;;16.90;99.90;;;;;;4975389;28;20030;-57
2022/07/19 04:26:41;;;;;;;6.47;2.97;;;17.10;99.90;;;;;;4975105;28;20038;-59
2022/07/19 04:29:07;;;;;;;4.63;2.20;;;17.40;99.90;;;;;;4975024;28;20026;-59
2022/07/19 04:31:33;;;;;;;5.28;1.98;;;17.70;99.90;;;;;;4974923;28;20437;-60
2022/07/19 04:33:58;;;;;;;6.72;2.30;;;18.10;99.90;;;;;;4975465;28;20081;-60
2022/07/19 04:36:24;;;;;;;6.00;2.55;;;18.30;99.90;;;;;;4976415;28;20030;-60
2022/07/19 04:38:49;;;;;;;8.30;2.28;;;18.40;99.90;;;;;;4974809;28;20026;-60
2022/07/19 04:41:15;;;;;;;4.40;2.63;;;18.80;99.90;;;;;;4974654;28;20122;-59
2022/07/19 04:43:40;;;;;;;5.22;2.28;;;19.20;99.90;;;;;;4975102;28;20030;-60
2022/07/19 04:46:07;;;;;;;10.23;2.25;;;19.50;99.90;;;;;;4975839;28;20027;-60
2022/07/19 04:48:32;;;;;;;4.05;2.60;;;19.90;99.90;;;;;;4974703;28;20050;-57
2022/07/19 04:50:58;;;;;;;5.28;2.38;;;20.20;99.90;;;;;;4975768;28;20062;-58
2022/07/19 04:53:23;;;;;;;5.47;1.98;;;20.60;99.90;;;;;;4975773;28;20030;-60
2022/07/19 04:55:49;;;;;;;4.65;1.88;;;21.00;99.90;;;;;;4974529;28;20023;-60
2022/07/19 04:58:15;;;;;;;5.50;2.35;;;21.30;99.90;;;;;;4974423;28;20054;-60
2022/07/19 05:00:40;;;;;;;5.80;2.17;;;21.70;99.90;;;;;;4973455;28;20079;-59
2022/07/19 05:03:06;;;;;;;6.70;2.63;;;22.00;99.90;;;;;;4974642;28;20090;-59
2022/07/19 05:05:32;;;;;;;11.18;2.40;;;22.40;99.90;;;;;;4974612;28;20022;-59
2022/07/19 05:07:57;;;;;;;8.05;2.50;;;22.70;99.90;;;;;;4974390;28;20023;-60
2022/07/19 05:10:23;;;;;;;8.27;2.72;;;23.00;99.90;;;;;;4974187;28;20030;-60
2022/07/19 05:12:49;;;;;;;4.47;2.58;;;23.40;99.90;;;;;;4974188;28;20031;-61
2022/07/19 05:15:15;;;;;;;6.45;2.63;;;23.70;99.90;;;;;;4974132;28;20022;-60
2022/07/19 05:17:47;;;;;;;5.95;2.60;;;24.00;99.90;;;;;;4975034;28;20030;-60
2022/07/19 05:20:15;;;;;;;11.32;2.65;;;24.30;99.90;;;;;;4974575;28;20053;-61
2022/07/19 05:22:41;;;;;;;6.68;2.53;;;24.70;99.40;;;;;;4975221;28;20019;-61
2022/07/19 05:25:07;;;;;;;6.82;2.42;;;25.00;98.10;;;;;;4974493;28;20027;-61
2022/07/19 05:27:32;;;;;;;3.50;2.50;;;25.40;97.30;;;;;;4975381;28;20097;-61
2022/07/19 05:29:58;;;;;;;5.53;2.63;;;25.70;96.20;;;;;;4974136;28;20114;-61
2022/07/19 05:32:23;;;;;;;6.18;2.58;;;26.10;94.70;;;;;;4975165;28;20034;-61
2022/07/19 05:34:49;;;;;;;7.32;3.00;;;26.40;94.10;;;;;;4973862;28;20485;-61
2022/07/19 05:37:15;;;;;;;6.82;3.20;;;26.60;93.50;;;;;;4974188;28;20023;-60
2022/07/19 05:39:40;;;;;;;8.52;3.10;;;26.80;91.90;;;;;;4973805;28;20034;-61
2022/07/19 05:42:06;;;;;;;5.20;2.75;;;27.00;91.70;;;;;;4973726;28;20485;-61
2022/07/19 05:44:31;;;;;;;7.47;2.88;;;27.40;91.30;;;;;;4974849;28;20119;-61
2022/07/19 05:46:57;;;;;;;6.97;3.38;;;27.60;90.50;;;;;;4974942;28;20026;-61
2022/07/19 05:49:23;;;;;;;6.95;2.85;;;28.10;89.40;;;;;;4973563;28;20029;-61
2022/07/19 05:51:48;;;;;;;7.28;2.53;;;28.40;86.60;;;;;;4974698;28;20077;-61
2022/07/19 05:54:14;;;;;;;6.95;3.13;;;28.60;86.00;;;;;;4973945;28;20027;-61
2022/07/19 05:56:39;;;;;;;5.72;2.20;;;28.70;84.10;;;;;;4973548;28;20030;-61
2022/07/19 05:59:05;;;;;;;6.63;2.58;;;29.10;83.40;;;;;;4974362;28;20030;-61
2022/07/19 06:01:30;;;;;;;3.33;2.28;;;29.50;82.90;;;;;;4973610;28;20030;-61
2022/07/19 06:03:58;;;;;;;3.50;2.47;;;29.80;81.10;;;;;;4974612;28;20062;-62
2022/07/19 06:06:26;;;;;;;11.57;3.00;;;30.20;80.10;;;;;;4973518;28;20053;-62
2022/07/19 06:08:52;;;;;;;5.47;3.33;;;30.50;78.20;;;;;;4974718;28;20370;-61
2022/07/19 06:11:18;;;;;;;7.95;3.20;;;30.90;76.60;;;;;;4974413;28;20105;-61
2022/07/19 06:13:45;;;;;;;5.07;2.83;;;31.30;75.80;;;;;;4974057;28;20070;-61
2022/07/19 06:16:11;;;;;;;11.18;3.15;;;31.70;72.60;;;;;;4973337;28;20023;-62
2022/07/19 06:18:38;;;;;;;5.53;2.83;;;32.00;71.90;;;;;;4973594;28;20035;-62
2022/07/19 06:21:06;;;;;;;5.03;2.78;;;32.40;71.20;;;;;;4974483;28;20026;-62
2022/07/19 06:23:32;;;;;;;10.52;3.72;;;32.90;69.10;;;;;;4974821;28;20035;-61
2022/07/19 06:25:57;;;;;;;8.07;3.42;;;33.20;67.70;;;;;;4973309;28;20023;-62
2022/07/19 06:28:24;;;;;;;7.00;2.83;;;33.50;68.90;;;;;;4974405;28;20470;-62
2022/07/19 06:30:49;;;;;;;9.20;3.00;;;34.00;67.00;;;;;;4973156;28;20027;-62
2022/07/19 06:33:15;;;;;;;9.30;3.70;;;34.30;66.60;;;;;;4973611;28;20050;-62
2022/07/19 06:35:41;;;;;;;5.97;3.13;;;34.70;63.80;;;;;;4974410;28;20035;-62
2022/07/19 06:38:07;;;;;;;6.55;2.63;;;34.80;62.70;;;;;;4973109;28;20062;-62
2022/07/19 06:40:32;;;;;;;10.35;3.28;;;35.00;62.40;;;;;;4973404;28;20038;-62
2022/07/19 06:42:58;;;;;;;8.63;2.90;;;35.50;61.80;;;;;;4974566;28;20023;-62
2022/07/19 06:45:24;;;;;;;5.90;2.83;;;35.00;60.10;;;;;;4974337;28;20107;-61
2022/07/19 06:47:51;;;;;;;4.88;2.72;;;35.20;60.10;;;;;;4973598;28;20023;-62
2022/07/19 06:50:20;;;;;;;7.55;2.85;;;35.70;59.60;;;;;;4973523;28;20026;-62
2022/07/19 06:52:45;;;;;;;4.20;2.63;;;36.40;58.80;;;;;;4972933;28;20109;-62
2022/07/19 06:55:11;;;;;;;10.35;2.83;;;36.60;58.70;;;;;;4972957;28;20122;-62
2022/07/19 06:57:37;;;;;;;6.22;2.70;;;37.30;57.50;;;;;;4974185;28;20027;-62
2022/07/19 07:00:05;;;;;;;6.57;3.35;;;37.60;56.20;;;;;;4973147;28;20027;-62
2022/07/19 07:02:31;;;;;;;3.08;2.40;;;38.20;54.80;;;;;;4974130;28;20023;-62
2022/07/19 07:04:56;;;;;;;7.30;3.38;;;38.40;53.50;;;;;;4974369;28;20065;-61
2022/07/19 07:07:22;;;;;;;6.18;3.20;;;38.80;54.40;;;;;;4973153;28;20027;-61
2022/07/19 07:09:47;;;;;;;4.65;2.50;;;38.90;53.80;;;;;;4972730;28;20026;-62
2022/07/19 07:12:13;;;;;;;5.32;2.80;;;39.20;52.70;;;;;;4973062;28;20074;-62
2022/07/19 07:14:39;;;;;;;7.82;3.05;;;39.80;51.40;;;;;;4972759;28;20030;-65
2022/07/19 07:17:04;;;;;;;3.28;2.70;;;39.90;51.00;;;;;;4973000;28;20122;-65
2022/07/19 07:19:30;;;;;;;5.20;2.42;;;40.10;50.60;;;;;;4972653;28;20026;-66
2022/07/19 07:21:59;;;;;;;6.93;2.90;;;40.50;50.00;;;;;;4973004;28;20058;-64
2022/07/19 07:24:25;;;;;;;3.65;2.30;;;40.90;50.00;;;;;;4974460;28;20046;-65
2022/07/19 07:26:51;;;;;;;4.40;2.45;;;40.70;48.80;;;;;;4976428;28;20517;-63
2022/07/19 07:29:17;;;;;;;7.25;2.47;;;41.10;49.60;;;;;;4976195;28;20035;-65
2022/07/19 07:31:42;;;;;;;8.27;3.08;;;42.00;47.70;;;;;;4977245;28;20066;-65
2022/07/19 07:34:08;;;;;;;5.47;2.55;;;42.40;47.50;;;;;;4977246;28;20113;-66
2022/07/19 07:36:34;;;;;;;4.57;2.92;;;42.90;46.60;;;;;;4976262;28;20106;-66
2022/07/19 07:38:59;;;;;;;4.38;2.83;;;43.40;44.60;;;;;;4976147;28;20023;-65
2022/07/19 07:41:25;;;;;;;5.07;2.88;;;43.50;44.50;;;;;;4975924;28;20030;-64
2022/07/19 07:43:51;;;;;;;3.63;2.42;;;43.60;43.90;;;;;;4975980;28;20031;-63
2022/07/19 07:46:16;;;;;;;4.05;2.60;;;44.10;44.60;;;;;;4976295;28;20027;-64
2022/07/19 07:48:50;;;;;;;7.78;3.05;;;44.60;44.10;;;;;;4976205;28;20030;-64
2022/07/19 07:51:16;;;;;;;7.00;2.88;;;44.90;43.30;;;;;;4976642;28;20034;-64
2022/07/19 07:53:42;;;;;;;5.20;3.10;;;45.20;42.50;;;;;;4975910;28;20422;-64
2022/07/19 07:56:07;;;;;;;3.20;2.72;;;45.40;41.30;;;;;;4975676;28;20023;-64
2022/07/19 07:58:33;;;;;;;10.43;2.55;;;45.60;42.60;;;;;;4977060;28;20030;-64
2022/07/19 08:00:59;;;;;;;5.05;2.85;;;45.80;41.10;;;;;;4975789;28;20042;-64
2022/07/19 08:03:24;;;;;;;5.40;3.15;;;46.30;42.20;;;;;;4975959;28;20034;-64
2022/07/19 08:05:50;;;;;;;4.93;2.85;;;46.20;40.50;;;;;;4975467;28;20026;-64
2022/07/19 08:08:16;;;;;;;5.05;2.92;;;46.30;40.80;;;;;;4977253;28;20346;-64
2022/07/19 08:10:41;;;;;;;8.45;3.00;;;46.90;41.50;;;;;;4975639;28;20054;-64
2022/07/19 08:13:07;;;;;;;10.68;3.20;;;47.50;39.60;;;;;;4976783;28;20086;-64
2022/07/19 08:15:34;;;;;;;9.75;3.35;;;47.50;39.10;;;;;;4976894;28;20019;-64
2022/07/19 08:17:59;;;;;;;8.15;3.35;;;47.00;39.80;;;;;;4976477;28;20102;-64
2022/07/19 08:20:25;;;;;;;6.72;2.85;;;46.90;39.80;;;;;;4975103;28;20110;-64
2022/07/19 08:22:51;;;;;;;6.15;3.17;;;47.30;38.80;;;;;;4975207;28;20031;-64
2022/07/19 08:25:17;;;;;;;9.45;3.30;;;47.90;39.00;;;;;;4975061;28;20042;-64
2022/07/19 08:27:44;;;;;;;7.65;2.83;;;48.10;38.30;;;;;;4975376;28;20030;-64
2022/07/19 08:30:11;;;;;;;5.82;2.92;;;47.70;38.40;;;;;;4975270;28;20027;-64
2022/07/19 08:32:37;;;;;;;6.05;2.83;;;47.80;37.90;;;;;;4976137;28;20023;-64
2022/07/19 08:35:04;;;;;;;5.25;3.03;;;47.30;39.00;;;;;;4976090;28;20489;-64
2022/07/19 08:37:30;;;;;;;5.00;3.03;;;48.30;38.60;;;;;;4974865;28;20027;-64
2022/07/19 08:39:56;;;;;;;9.52;3.05;;;49.10;37.20;;;;;;4975078;28;20034;-64
2022/07/19 08:42:21;;;;;;;3.65;2.88;;;49.50;37.80;;;;;;4976408;28;20528;-64
2022/07/19 08:44:51;;;;;;;5.00;2.70;;;49.20;35.00;;;;;;4975124;28;20023;-64
2022/07/19 08:47:21;;;;;;;6.55;2.47;;;48.00;34.40;;;;;;4976064;28;20050;-64
2022/07/19 08:49:48;;;;;;;6.15;2.38;;;47.00;34.70;;;;;;4974833;28;20563;-64
2022/07/19 08:52:16;;;;;;;3.60;2.10;;;47.30;35.20;;;;;;4974530;28;20104;-64
2022/07/19 08:54:42;;;;;;;2.90;2.45;;;47.00;35.00;;;;;;4974587;28;20029;-64
2022/07/19 08:59:51;;;;;;;2.95;2.38;;;45.80;36.30;;;;;;4976200;28;20057;-64
2022/07/19 09:02:17;;;;;;;7.00;2.00;;;44.90;36.00;;;;;;4974815;28;20422;-64
2022/07/19 09:04:43;;;;;;;7.22;1.90;;;44.60;35.60;;;;;;4975864;28;20030;-64
2022/07/19 09:07:09;;;;;;;7.28;2.10;;;44.10;36.30;;;;;;4975770;28;20031;-64
2022/07/19 09:09:36;;;;;;;5.32;1.98;;;44.50;36.60;;;;;;4974634;28;20053;-64
2022/07/19 09:12:04;;;;;;;3.72;1.80;;;45.50;36.60;;;;;;4974263;28;20048;-64
2022/07/19 09:14:35;;;;;;;5.47;1.95;;;46.90;36.40;;;;;;4975393;28;20058;-64
2022/07/19 09:17:03;;;;;;;3.63;2.17;;;47.60;34.50;;;;;;4974200;28;20486;-64
2022/07/19 09:19:32;;;;;;;4.13;2.10;;;47.80;33.60;;;;;;4975274;28;20101;-64
2022/07/19 09:22:03;;;;;;;7.45;1.80;;;47.40;34.20;;;;;;4974209;28;20033;-64
2022/07/19 09:24:31;;;;;;;8.30;2.20;;;46.00;33.60;;;;;;4974050;28;20049;-64
2022/07/19 09:27:03;;;;;;;4.65;1.85;;;46.30;34.10;;;;;;4975111;28;20034;-64
2022/07/19 09:29:30;;;;;;;5.32;2.20;;;45.70;34.70;;;;;;4973947;28;20037;-63
2022/07/19 09:32:17;;;;;;;5.28;1.70;;;45.60;34.50;;;;;;4974692;28;20027;-64
2022/07/19 09:35:01;;;;;;;6.65;1.85;;;44.90;34.90;;;;;;4974208;28;20077;-64
2022/07/19 09:37:29;;;;;;;4.90;1.67;;;45.40;34.40;;;;;;4975403;28;20019;-64
2022/07/19 09:39:59;;;;;;;4.10;1.80;;;45.40;35.00;;;;;;4974427;28;20110;-64
2022/07/19 09:42:44;;;;;;;4.40;1.95;;;45.90;33.90;;;;;;4974304;28;20031;-64
2022/07/19 09:45:17;;;;;;;3.90;2.35;;;46.20;34.30;;;;;;4973789;28;20073;-64
2022/07/19 09:47:45;;;;;;;2.30;1.92;;;45.70;33.90;;;;;;4974032;28;20050;-64
2022/07/19 09:50:16;;;;;;;2.22;2.00;;;46.30;34.00;;;;;;4973657;28;20113;-64
2022/07/19 09:52:47;;;;;;;8.13;1.80;;;47.20;33.50;;;;;;4973616;28;20035;-64
2022/07/19 09:55:13;;;;;;;2.70;2.03;;;47.10;32.50;;;;;;4974320;28;20023;-64
2022/07/19 09:57:45;;;;;;;5.68;2.03;;;47.50;33.40;;;;;;4973889;28;20045;-64
2022/07/19 10:00:12;;;;;;;3.15;2.22;;;47.60;32.60;;;;;;4974748;28;20034;-64
2022/07/19 10:02:41;;;;;;;3.03;2.03;;;47.70;32.50;;;;;;4973791;28;20033;-64
2022/07/19 10:05:09;;;;;;;5.40;2.10;;;47.80;32.40;;;;;;4974729;28;20101;-64
2022/07/19 10:07:35;;;;;;;4.68;2.10;;;46.30;32.00;;;;;;4974650;28;20026;-64
2022/07/19 10:10:10;;;;;;;9.18;2.15;;;45.20;32.90;;;;;;4973649;28;20037;-64
2022/07/19 10:12:38;;;;;;;5.00;1.80;;;44.90;34.00;;;;;;4974874;28;20030;-64
2022/07/19 10:15:04;;;;;;;4.22;1.83;;;44.30;34.10;;;;;;4974679;28;20022;-63
2022/07/19 10:17:58;;;;;;;4.53;1.75;;;43.90;34.00;;;;;;4974477;28;20114;-63
2022/07/19 10:20:26;;;;;;;4.85;1.85;;;43.80;34.20;;;;;;4974456;28;20019;-63
2022/07/19 10:22:51;;;;;;;3.17;1.77;;;43.10;34.40;;;;;;4973939;28;20027;-63
2022/07/19 10:25:17;;;;;;;4.82;1.58;;;43.50;35.50;;;;;;4973095;28;20045;-63
2022/07/19 10:27:47;;;;;;;6.10;1.95;;;44.30;34.30;;;;;;4973552;28;20058;-64
2022/07/19 10:30:12;;;;;;;2.45;1.63;;;44.20;34.40;;;;;;4973144;28;20123;-63
2022/07/19 10:32:40;;;;;;;3.05;2.30;;;43.40;35.00;;;;;;4973102;28;20117;-63
2022/07/19 10:35:26;;;;;;;6.75;1.80;;;43.30;35.50;;;;;;4973101;28;20445;-63
2022/07/19 10:38:08;;;;;;;4.63;2.25;;;43.00;35.20;;;;;;4973742;28;20117;-63
2022/07/19 10:40:49;;;;;;;2.00;1.80;;;42.80;36.10;;;;;;4974405;28;20102;-63
2022/07/19 10:43:21;;;;;;;3.88;1.58;;;42.30;35.20;;;;;;4973127;28;20033;-63
2022/07/19 10:45:55;;;;;;;5.95;2.05;;;41.10;36.60;;;;;;4973129;28;20023;-63
2022/07/19 10:48:39;;;;;;;9.05;1.83;;;40.50;37.50;;;;;;4974298;28;20037;-63
2022/07/19 10:51:10;;;;;;;4.15;1.80;;;40.10;38.80;;;;;;4974169;28;20030;-63
2022/07/19 10:53:42;;;;;;;3.47;2.15;;;39.00;39.10;;;;;;4973005;28;20022;-63
2022/07/19 10:56:24;;;;;;;4.82;1.90;;;38.60;38.90;;;;;;4972950;28;20078;-63
2022/07/19 10:58:56;;;;;;;6.07;2.10;;;38.50;40.00;;;;;;4974418;28;20023;-63
2022/07/19 11:01:24;;;;;;;3.92;2.10;;;37.90;39.50;;;;;;4976705;28;20027;-63
2022/07/19 11:03:51;;;;;;;4.13;1.75;;;37.10;39.10;;;;;;4976973;28;20026;-63
2022/07/19 11:06:27;;;;;;;5.05;3.17;;;36.50;39.70;;;;;;4977855;28;20023;-63
2022/07/19 11:08:56;;;;;;;4.47;1.80;;;36.30;40.30;;;;;;4977805;28;20577;-63
2022/07/19 11:11:22;;;;;;;3.95;2.17;;;36.40;40.90;;;;;;4976298;28;20027;-62
2022/07/19 11:13:57;;;;;;;13.50;2.60;;;36.10;41.00;;;;;;4976773;28;20082;-63
2022/07/19 11:16:25;;;;;;;7.07;1.90;;;35.70;41.10;;;;;;4976416;28;20032;-63
2022/07/19 11:18:51;;;;;;;2.85;2.00;;;35.30;41.50;;;;;;4976500;28;20023;-63
2022/07/19 11:21:17;;;;;;;2.72;1.75;;;35.10;41.40;;;;;;4977485;28;20061;-63
2022/07/19 11:23:44;;;;;;;14.02;2.30;;;34.90;42.20;;;;;;4976221;28;20043;-63
2022/07/19 11:26:15;;;;;;;3.15;1.90;;;35.00;42.50;;;;;;4976540;28;20037;-63
2022/07/19 11:28:42;;;;;;;4.20;2.03;;;34.80;42.20;;;;;;4977570;28;20027;-63
2022/07/19 11:31:15;;;;;;;5.65;1.73;;;34.70;42.30;;;;;;4976034;28;20034;-63
2022/07/19 11:33:41;;;;;;;2.53;2.03;;;34.60;42.20;;;;;;4976475;28;20019;-63
2022/07/19 11:36:08;;;;;;;6.13;1.98;;;34.50;42.60;;;;;;4977465;28;20023;-63
2022/07/19 11:39:00;;;;;;;3.47;2.00;;;34.50;42.30;;;;;;4977226;28;20110;-62
2022/07/19 11:41:31;;;;;;;4.22;1.80;;;34.40;43.00;;;;;;4975975;28;20030;-62
2022/07/19 11:44:02;;;;;;;3.33;1.80;;;34.60;42.60;;;;;;4976354;28;20037;-63
2022/07/19 11:46:34;;;;;;;5.93;2.00;;;34.60;43.40;;;;;;4976043;28;20062;-63
2022/07/19 11:49:02;;;;;;;6.40;2.22;;;34.60;43.40;;;;;;4977411;28;20030;-63
2022/07/19 11:51:29;;;;;;;3.92;2.20;;;34.60;43.30;;;;;;4976055;28;20062;-63
2022/07/19 11:53:57;;;;;;;3.58;2.22;;;34.40;42.90;;;;;;4976018;28;20056;-63
2022/07/19 11:56:29;;;;;;;2.92;2.42;;;34.40;42.90;;;;;;4975962;28;20203;-63
2022/07/19 11:58:57;;;;;;;6.63;2.22;;;34.40;43.20;;;;;;4975792;28;20050;-63
2022/07/19 12:01:29;;;;;;;4.85;2.00;;;34.30;43.50;;;;;;4976737;28;20031;-63
2022/07/19 12:04:03;;;;;;;2.58;2.38;;;34.10;44.20;;;;;;4975599;28;20031;-63
2022/07/19 12:06:42;;;;;;;4.28;2.22;;;34.30;44.40;;;;;;4976559;28;20027;-63
2022/07/19 12:09:25;;;;;;;3.95;2.20;;;34.30;44.10;;;;;;4976179;28;20118;-63
2022/07/19 12:11:52;;;;;;;9.45;2.40;;;34.40;43.80;;;;;;4975395;28;20055;-63
2022/07/19 12:14:18;;;;;;;6.50;2.15;;;34.40;43.50;;;;;;4976888;28;20035;-63
2022/07/19 12:16:44;;;;;;;3.13;1.67;;;34.40;44.10;;;;;;4975817;28;20113;-63
2022/07/19 12:19:12;;;;;;;4.78;2.13;;;34.40;44.00;;;;;;4976638;28;20023;-63
2022/07/19 12:21:40;;;;;;;8.48;2.75;;;34.40;43.00;;;;;;4975631;28;20030;-61
2022/07/19 12:24:15;;;;;;;3.55;2.33;;;34.40;44.20;;;;;;4976481;28;20038;-63
2022/07/19 12:26:45;;;;;;;3.13;2.10;;;34.40;44.30;;;;;;4975589;28;20031;-63
2022/07/19 12:29:37;;;;;;;4.65;2.17;;;34.40;44.50;;;;;;4976069;28;20058;-62
2022/07/19 12:32:06;;;;;;;5.57;2.65;;;34.20;42.90;;;;;;4975190;28;20038;-63
2022/07/19 12:34:44;;;;;;;8.27;2.28;;;34.10;43.30;;;;;;4975092;28;20022;-63
2022/07/19 12:37:28;;;;;;;11.48;2.65;;;34.10;43.60;;;;;;4975051;28;20025;-63
2022/07/19 12:40:06;;;;;;;4.88;2.30;;;34.10;43.80;;;;;;4974847;28;20019;-63
2022/07/19 12:43:04;;;;;;;5.22;1.92;;;34.10;44.40;;;;;;4975159;28;20023;-63
2022/07/19 12:45:43;;;;;;;6.30;2.00;;;34.30;42.90;;;;;;4971859;28;20034;-63
2022/07/19 12:48:11;;;;;;;3.15;1.90;;;34.20;43.30;;;;;;4974817;28;20030;-63
2022/07/19 12:50:43;;;;;;;2.83;1.95;;;34.30;42.80;;;;;;4975586;28;20481;-63